createdAt,value
2019-03-03T00:02:06.501Z,100140.00
2019-03-03T00:04:37.206Z,100135.00
2019-03-03T00:07:10.032Z,100142.00
2019-03-03T00:09:40.665Z,100134.00
2019-03-03T00:12:11.098Z,100138.00
2019-03-03T00:14:41.461Z,100138.00
2019-03-03T00:17:12.226Z,100142.00
2019-03-03T00:19:42.763Z,100145.00
2019-03-03T00:22:13.215Z,100147.00
2019-03-03T00:24:46.276Z,100147.00
2019-03-03T00:27:16.081Z,100136.00
2019-03-03T00:29:46.384Z,100135.00
2019-03-03T00:32:16.857Z,100143.00
2019-03-03T00:34:47.382Z,100151.00
2019-03-03T00:37:25.862Z,100144.00
2019-03-03T00:40:15.502Z,100128.00
2019-03-03T00:43:16.847Z,100123.00
2019-03-03T00:46:08.821Z,100134.00
2019-03-03T00:48:57.402Z,100144.00
2019-03-03T00:51:36.241Z,100139.00
2019-03-03T00:54:29.098Z,100134.00
2019-03-03T00:57:14.892Z,100137.00
2019-03-03T00:59:51.216Z,100150.00
2019-03-03T01:02:47.542Z,100150.00
2019-03-03T01:05:26.144Z,100150.00
2019-03-03T01:08:06.752Z,100145.00
2019-03-03T01:11:01.877Z,100141.00
2019-03-03T01:13:55.633Z,100145.00
2019-03-03T01:16:40.151Z,100147.00
2019-03-03T01:19:20.507Z,100144.00
2019-03-03T01:22:12.899Z,100130.00
2019-03-03T01:25:00.679Z,100126.00
2019-03-03T01:27:31.111Z,100125.00
2019-03-03T01:30:01.669Z,100117.00
2019-03-03T01:32:32.358Z,100134.00
2019-03-03T01:35:03.025Z,100099.00
2019-03-03T01:37:35.366Z,100106.00
2019-03-03T01:40:07.169Z,100096.00
2019-03-03T01:42:37.569Z,100102.00
2019-03-03T01:45:12.921Z,100098.00
2019-03-03T01:47:43.560Z,100099.00
2019-03-03T01:50:17.587Z,100097.00
2019-03-03T01:52:48.041Z,100096.00
2019-03-03T01:55:18.431Z,100102.00
2019-03-03T01:57:49.112Z,100091.00
2019-03-03T02:00:25.606Z,100091.00
2019-03-03T02:02:56.942Z,100100.00
2019-03-03T02:05:28.071Z,100077.00
2019-03-03T02:07:58.667Z,100070.00
2019-03-03T02:10:29.275Z,100063.00
2019-03-03T02:13:00.171Z,100052.00
2019-03-03T02:15:31.655Z,100036.00
2019-03-03T02:18:02.523Z,100039.00
2019-03-03T02:20:33.101Z,100024.00
2019-03-03T02:23:03.549Z,100023.00
2019-03-03T02:25:34.061Z,100030.00
2019-03-03T02:28:04.779Z,100024.00
2019-03-03T02:30:35.679Z,100021.00
2019-03-03T02:33:06.250Z,100016.00
2019-03-03T02:35:36.673Z,100013.00
2019-03-03T02:38:07.385Z,100008.00
2019-03-03T02:40:37.901Z,100004.00
2019-03-03T02:43:11.228Z,99995.00
2019-03-03T02:45:43.460Z,99993.00
2019-03-03T02:48:13.845Z,99982.00
2019-03-03T02:50:45.374Z,99987.00
2019-03-03T02:53:16.409Z,99968.00
2019-03-03T02:55:46.890Z,99956.00
2019-03-03T02:58:17.449Z,99958.00
2019-03-03T03:01:00.083Z,99955.00
2019-03-03T03:03:30.982Z,99974.00
2019-03-03T03:06:18.342Z,99968.00
2019-03-03T03:09:06.134Z,99972.00
2019-03-03T03:11:58.301Z,99968.00
2019-03-03T03:14:51.811Z,99965.00
2019-03-03T03:17:40.242Z,99965.00
2019-03-03T03:20:18.288Z,99958.00
2019-03-03T03:23:13.770Z,99950.00
2019-03-03T03:25:58.633Z,99942.00
2019-03-03T03:28:37.046Z,99951.00
2019-03-03T03:31:15.524Z,99955.00
2019-03-03T03:33:51.262Z,99949.00
2019-03-03T03:36:46.587Z,99953.00
2019-03-03T03:39:45.053Z,99946.00
2019-03-03T03:42:34.638Z,99939.00
2019-03-03T03:45:37.172Z,99929.00
2019-03-03T03:48:26.491Z,99921.00
2019-03-03T03:51:15.953Z,99911.00
2019-03-03T03:54:11.178Z,99915.00
2019-03-03T03:57:03.724Z,99905.00
2019-03-03T04:00:11.306Z,99903.00
2019-03-03T04:02:58.938Z,99898.00
2019-03-03T04:05:48.279Z,99890.00
2019-03-03T04:08:24.413Z,99884.00
2019-03-03T04:11:17.009Z,99886.00
2019-03-03T04:14:06.432Z,99888.00
2019-03-03T04:16:58.488Z,99890.00
2019-03-03T04:20:03.187Z,99890.00
2019-03-03T04:22:48.905Z,99886.00
2019-03-03T04:25:38.218Z,99887.00
2019-03-03T04:28:23.615Z,99875.00
2019-03-03T04:31:11.802Z,99878.00
2019-03-03T04:33:53.497Z,99868.00
2019-03-03T04:36:57.707Z,99867.00
2019-03-03T04:39:45.737Z,99855.00
2019-03-03T04:42:26.295Z,99857.00
2019-03-03T04:45:09.664Z,99864.00
2019-03-03T04:47:57.810Z,99858.00
2019-03-03T04:50:38.281Z,99847.00
2019-03-03T04:53:26.294Z,99838.00
2019-03-03T04:56:18.841Z,99842.00
2019-03-03T04:59:16.385Z,99838.00
2019-03-03T05:02:08.632Z,99836.00
2019-03-03T05:04:52.775Z,99839.00
2019-03-03T05:07:51.184Z,99834.00
2019-03-03T05:10:39.093Z,99832.00
2019-03-03T05:13:19.122Z,99824.00
2019-03-03T05:16:08.775Z,99830.00
2019-03-03T05:18:52.181Z,99822.00
2019-03-03T05:21:22.795Z,99830.00
2019-03-03T05:23:53.600Z,99838.00
2019-03-03T05:26:24.366Z,99821.00
2019-03-03T05:28:54.981Z,99809.00
2019-03-03T05:31:25.231Z,99794.00
2019-03-03T05:33:55.772Z,99799.00
2019-03-03T05:36:26.075Z,99804.00
2019-03-03T05:38:56.373Z,99792.00
2019-03-03T05:41:26.648Z,99797.00
2019-03-03T05:43:57.046Z,99804.00
2019-03-03T05:46:27.498Z,99799.00
2019-03-03T05:48:58.623Z,99796.00
2019-03-03T05:51:28.786Z,99781.00
2019-03-03T05:53:58.995Z,99796.00
2019-03-03T05:56:29.185Z,99782.00
2019-03-03T05:58:59.393Z,99793.00
2019-03-03T06:01:29.599Z,99780.00
2019-03-03T06:03:59.814Z,99781.00
2019-03-03T06:06:30.052Z,99795.00
2019-03-03T06:09:00.129Z,99789.00
2019-03-03T06:11:30.718Z,99790.00
2019-03-03T06:14:01.452Z,99782.00
2019-03-03T06:16:32.239Z,99782.00
2019-03-03T06:19:03.286Z,99785.00
2019-03-03T06:21:33.920Z,99778.00
2019-03-03T06:24:04.861Z,99788.00
2019-03-03T06:26:36.108Z,99782.00
2019-03-03T06:29:06.816Z,99779.00
2019-03-03T06:31:41.566Z,99787.00
2019-03-03T06:34:12.367Z,99771.00
2019-03-03T06:36:45.968Z,99784.00
2019-03-03T06:39:16.444Z,99787.00
2019-03-03T06:41:47.191Z,99778.00
2019-03-03T06:44:17.814Z,99774.00
2019-03-03T06:46:48.683Z,99771.00
2019-03-03T06:49:19.193Z,99780.00
2019-03-03T06:51:50.156Z,99767.00
2019-03-03T06:54:21.225Z,99774.00
2019-03-03T06:56:51.974Z,99775.00
2019-03-03T06:59:22.326Z,99765.00
2019-03-03T07:01:53.408Z,99780.00
2019-03-03T07:04:24.653Z,99774.00
2019-03-03T07:06:57.942Z,99766.00
2019-03-03T07:09:29.313Z,99778.00
2019-03-03T07:12:00.531Z,99763.00
2019-03-03T07:14:31.272Z,99773.00
2019-03-03T07:17:02.318Z,99773.00
2019-03-03T07:19:33.314Z,99765.00
2019-03-03T07:22:07.144Z,99777.00
2019-03-03T07:24:38.560Z,99763.00
2019-03-03T07:27:09.172Z,99772.00
2019-03-03T07:29:39.694Z,99770.00
2019-03-03T07:32:10.574Z,99771.00
2019-03-03T07:34:41.278Z,99778.00
2019-03-03T07:37:12.228Z,99788.00
2019-03-03T07:39:43.526Z,99795.00
2019-03-03T07:42:14.606Z,99788.00
2019-03-03T07:44:45.308Z,99784.00
2019-03-03T07:47:16.082Z,99791.00
2019-03-03T07:49:46.894Z,99784.00
2019-03-03T07:52:17.888Z,99788.00
2019-03-03T07:54:49.042Z,99784.00
2019-03-03T07:57:21.102Z,99789.00
2019-03-03T07:59:52.119Z,99794.00
2019-03-03T08:02:23.118Z,99792.00
2019-03-03T08:04:53.868Z,99802.00
2019-03-03T08:07:24.592Z,99786.00
2019-03-03T08:09:55.268Z,99791.00
2019-03-03T08:12:26.143Z,99790.00
2019-03-03T08:14:57.230Z,99793.00
2019-03-03T08:17:31.281Z,99801.00
2019-03-03T08:20:01.877Z,99808.00
2019-03-03T08:22:32.749Z,99793.00
2019-03-03T08:25:03.445Z,99788.00
2019-03-03T08:27:34.508Z,99796.00
2019-03-03T08:30:06.796Z,99799.00
2019-03-03T08:32:38.623Z,99802.00
2019-03-03T08:35:11.025Z,99813.00
2019-03-03T08:37:42.049Z,99824.00
2019-03-03T08:40:13.145Z,99806.00
2019-03-03T08:42:57.748Z,99810.00
2019-03-03T08:45:47.240Z,99809.00
2019-03-03T08:48:37.107Z,99826.00
2019-03-03T08:51:27.061Z,99828.00
2019-03-03T08:54:26.053Z,99826.00
2019-03-03T08:57:24.806Z,99835.00
2019-03-03T09:00:26.365Z,99806.00
2019-03-03T09:03:18.639Z,99819.00
2019-03-03T09:05:58.913Z,99833.00
2019-03-03T09:08:50.575Z,99832.00
2019-03-03T09:11:29.117Z,99834.00
2019-03-03T09:14:30.442Z,99846.00
2019-03-03T09:17:15.910Z,99828.00
2019-03-03T09:19:54.231Z,99828.00
2019-03-03T09:22:50.217Z,99835.00
2019-03-03T09:25:57.851Z,99838.00
2019-03-03T09:29:05.385Z,99831.00
2019-03-03T09:31:53.375Z,99828.00
2019-03-03T09:34:58.660Z,99836.00
2019-03-03T09:37:50.877Z,99826.00
2019-03-03T09:40:39.056Z,99833.00
2019-03-03T09:43:23.496Z,99838.00
2019-03-03T09:46:21.645Z,99831.00
2019-03-03T09:49:09.457Z,99831.00
2019-03-03T09:51:49.494Z,99824.00
2019-03-03T09:54:31.881Z,99840.00
2019-03-03T09:57:27.443Z,99838.00
2019-03-03T10:00:08.759Z,99843.00
2019-03-03T10:02:58.607Z,99841.00
2019-03-03T10:05:48.595Z,99830.00
2019-03-03T10:08:56.400Z,99843.00
2019-03-03T10:11:36.899Z,99841.00
2019-03-03T10:14:29.165Z,99848.00
2019-03-03T10:17:21.061Z,99846.00
2019-03-03T10:20:09.111Z,99846.00
2019-03-03T10:22:46.799Z,99840.00
2019-03-03T10:25:48.599Z,99831.00
2019-03-03T10:28:36.446Z,99833.00
2019-03-03T10:31:28.803Z,99835.00
2019-03-03T10:34:21.421Z,99831.00
2019-03-03T10:37:14.594Z,99834.00
2019-03-03T10:40:05.594Z,99842.00
2019-03-03T10:42:58.265Z,99825.00
2019-03-03T10:45:54.045Z,99829.00
2019-03-03T10:48:59.129Z,99829.00
2019-03-03T10:51:44.602Z,99823.00
2019-03-03T10:54:35.905Z,99826.00
2019-03-03T10:57:25.253Z,99809.00
2019-03-03T11:00:21.133Z,99817.00
2019-03-03T11:03:04.142Z,99805.00
2019-03-03T11:05:52.047Z,99823.00
2019-03-03T11:08:36.077Z,99823.00
2019-03-03T11:11:24.345Z,99806.00
2019-03-03T11:14:13.597Z,99806.00
2019-03-03T11:17:08.809Z,99805.00
2019-03-03T11:19:52.854Z,99807.00
2019-03-03T11:22:46.683Z,99804.00
2019-03-03T11:25:51.313Z,99809.00
2019-03-03T11:28:46.434Z,99809.00
2019-03-03T11:31:42.163Z,99806.00
2019-03-03T11:34:34.727Z,99802.00
2019-03-03T11:37:22.240Z,99800.00
2019-03-03T11:40:29.529Z,99801.00
2019-03-03T11:43:18.672Z,99798.00
2019-03-03T11:46:06.848Z,99787.00
2019-03-03T11:48:54.110Z,99789.00
2019-03-03T11:51:49.280Z,99789.00
2019-03-03T11:54:27.632Z,99767.00
2019-03-03T11:57:16.766Z,99772.00
2019-03-03T11:59:56.828Z,99778.00
2019-03-03T12:03:01.142Z,99769.00
2019-03-03T12:05:40.081Z,99765.00
2019-03-03T12:08:41.376Z,99765.00
2019-03-03T12:11:27.934Z,99763.00
2019-03-03T12:14:29.582Z,99765.00
2019-03-03T12:17:14.092Z,99765.00
2019-03-03T12:20:02.138Z,99747.00
2019-03-03T12:22:50.326Z,99755.00
2019-03-03T12:25:31.030Z,99755.00
2019-03-03T12:28:21.693Z,99747.00
2019-03-03T12:31:14.631Z,99748.00
2019-03-03T12:34:04.474Z,99742.00
2019-03-03T12:37:02.810Z,99746.00
2019-03-03T12:39:55.794Z,99733.00
2019-03-03T12:42:46.862Z,99742.00
2019-03-03T12:45:24.766Z,99738.00
2019-03-03T12:48:12.485Z,99724.00
2019-03-03T12:50:53.660Z,99710.00
2019-03-03T12:53:43.654Z,99711.00
2019-03-03T12:56:37.199Z,99723.00
2019-03-03T12:59:22.362Z,99717.00
2019-03-03T13:02:11.838Z,99720.00
2019-03-03T13:05:11.304Z,99712.00
2019-03-03T13:08:03.922Z,99711.00
2019-03-03T13:10:53.701Z,99708.00
2019-03-03T13:13:43.626Z,99710.00
2019-03-03T13:16:49.417Z,99697.00
2019-03-03T13:19:48.285Z,99688.00
2019-03-03T13:22:43.808Z,99687.00
2019-03-03T13:25:23.449Z,99695.00
2019-03-03T13:28:29.633Z,99686.00
2019-03-03T13:31:19.200Z,99691.00
2019-03-03T13:34:08.753Z,99684.00
2019-03-03T13:36:56.871Z,99682.00
2019-03-03T13:39:46.152Z,99677.00
2019-03-03T13:42:36.875Z,99678.00
2019-03-03T13:45:09.184Z,99679.00
2019-03-03T13:47:39.865Z,99670.00
2019-03-03T13:50:12.913Z,99657.00
2019-03-03T13:52:46.943Z,99666.00
2019-03-03T13:55:17.308Z,99668.00
2019-03-03T13:57:48.254Z,99653.00
2019-03-03T14:00:21.482Z,99655.00
2019-03-03T14:02:52.241Z,99645.00
2019-03-03T14:05:24.641Z,99651.00
2019-03-03T14:07:55.541Z,99639.00
2019-03-03T14:10:26.301Z,99643.00
2019-03-03T14:12:57.496Z,99649.00
2019-03-03T14:15:28.580Z,99639.00
2019-03-03T14:17:59.648Z,99644.00
2019-03-03T14:20:30.617Z,99652.00
2019-03-03T14:23:01.475Z,99628.00
2019-03-03T14:25:32.724Z,99632.00
2019-03-03T14:28:03.876Z,99633.00
2019-03-03T14:30:34.664Z,99632.00
2019-03-03T14:33:05.719Z,99622.00
2019-03-03T14:35:36.548Z,99627.00
2019-03-03T14:38:07.764Z,99620.00
2019-03-03T14:40:38.815Z,99619.00
2019-03-03T14:43:10.280Z,99614.00
2019-03-03T14:45:41.274Z,99615.00
2019-03-03T14:48:12.302Z,99612.00
2019-03-03T14:50:43.119Z,99603.00
2019-03-03T14:53:13.744Z,99603.00
2019-03-03T14:55:45.872Z,99609.00
2019-03-03T14:58:16.749Z,99599.00
2019-03-03T15:00:47.786Z,99606.00
2019-03-03T15:03:18.831Z,99596.00
2019-03-03T15:05:50.030Z,99588.00
2019-03-03T15:08:21.280Z,99580.00
2019-03-03T15:10:52.454Z,99581.00
2019-03-03T15:13:23.755Z,99581.00
2019-03-03T15:15:54.591Z,99577.00
2019-03-03T15:18:25.833Z,99586.00
2019-03-03T15:20:58.771Z,99571.00
2019-03-03T15:23:29.703Z,99584.00
2019-03-03T15:26:00.679Z,99572.00
2019-03-03T15:28:31.486Z,99586.00
2019-03-03T15:31:02.801Z,99574.00
2019-03-03T15:33:36.736Z,99574.00
2019-03-03T15:36:07.740Z,99570.00
2019-03-03T15:38:38.938Z,99577.00
2019-03-03T15:41:10.280Z,99560.00
2019-03-03T15:43:41.219Z,99571.00
2019-03-03T15:46:12.208Z,99574.00
2019-03-03T15:48:43.386Z,99573.00
2019-03-03T15:51:17.625Z,99571.00
2019-03-03T15:53:48.798Z,99556.00
2019-03-03T15:56:20.473Z,99557.00
2019-03-03T15:58:55.594Z,99548.00
2019-03-03T16:01:26.548Z,99550.00
2019-03-03T16:03:57.465Z,99546.00
2019-03-03T16:06:30.642Z,99544.00
2019-03-03T16:09:01.496Z,99539.00
2019-03-03T16:11:32.406Z,99533.00
2019-03-03T16:14:03.187Z,99536.00
2019-03-03T16:16:34.013Z,99533.00
2019-03-03T16:19:04.926Z,99529.00
2019-03-03T16:21:36.236Z,99524.00
2019-03-03T16:24:08.585Z,99511.00
2019-03-03T16:26:39.717Z,99516.00
2019-03-03T16:29:10.498Z,99509.00
2019-03-03T16:31:41.542Z,99515.00
2019-03-03T16:34:12.733Z,99518.00
2019-03-03T16:36:46.174Z,99514.00
2019-03-03T16:39:16.837Z,99508.00
2019-03-03T16:41:47.349Z,99510.00
2019-03-03T16:44:17.799Z,99508.00
2019-03-03T16:46:48.181Z,99518.00
2019-03-03T16:49:18.833Z,99509.00
2019-03-03T16:51:49.362Z,99510.00
2019-03-03T16:54:19.548Z,99503.00
2019-03-03T16:56:50.093Z,99501.00
2019-03-03T16:59:20.222Z,99496.00
2019-03-03T17:01:50.323Z,99494.00
2019-03-03T17:04:20.475Z,99493.00
2019-03-03T17:06:50.545Z,99499.00
2019-03-03T17:09:20.856Z,99480.00
2019-03-03T17:11:51.195Z,99477.00
2019-03-03T17:14:21.361Z,99488.00
2019-03-03T17:16:51.680Z,99488.00
2019-03-03T17:19:22.122Z,99473.00
2019-03-03T17:21:54.025Z,99471.00
2019-03-03T17:24:24.442Z,99462.00
2019-03-03T17:26:55.252Z,99462.00
2019-03-03T17:29:26.150Z,99467.00
2019-03-03T17:31:58.783Z,99466.00
2019-03-03T17:34:29.234Z,99458.00
2019-03-03T17:37:00.195Z,99450.00
2019-03-03T17:39:30.766Z,99452.00
2019-03-03T17:42:01.524Z,99453.00
2019-03-03T17:44:31.997Z,99454.00
2019-03-03T17:47:03.091Z,99461.00
2019-03-03T17:49:34.632Z,99452.00
2019-03-03T17:52:05.175Z,99451.00
2019-03-03T17:54:35.608Z,99441.00
2019-03-03T17:57:06.221Z,99434.00
2019-03-03T17:59:36.750Z,99433.00
2019-03-03T18:02:07.232Z,99438.00
2019-03-03T18:04:38.131Z,99427.00
2019-03-03T18:07:15.105Z,99434.00
2019-03-03T18:09:47.157Z,99428.00
2019-03-03T18:12:17.659Z,99423.00
2019-03-03T18:14:47.983Z,99428.00
2019-03-03T18:17:21.133Z,99412.00
2019-03-03T18:19:51.498Z,99405.00
2019-03-03T18:22:21.983Z,99411.00
2019-03-03T18:24:53.350Z,99390.00
2019-03-03T18:27:25.401Z,99387.00
2019-03-03T18:29:55.826Z,99390.00
2019-03-03T18:32:26.338Z,99387.00
2019-03-03T18:34:59.320Z,99383.00
2019-03-03T18:37:30.207Z,99380.00
2019-03-03T18:40:00.626Z,99390.00
2019-03-03T18:42:31.195Z,99381.00
2019-03-03T18:45:01.590Z,99386.00
2019-03-03T18:47:31.991Z,99372.00
2019-03-03T18:50:02.666Z,99371.00
2019-03-03T18:52:33.260Z,99375.00
2019-03-03T18:55:04.186Z,99365.00
2019-03-03T18:57:34.797Z,99367.00
2019-03-03T19:00:09.587Z,99364.00
2019-03-03T19:02:43.471Z,99362.00
2019-03-03T19:05:14.792Z,99355.00
2019-03-03T19:07:45.212Z,99346.00
2019-03-03T19:10:16.813Z,99361.00
2019-03-03T19:12:47.259Z,99366.00
2019-03-03T19:15:18.286Z,99347.00
2019-03-03T19:17:49.130Z,99356.00
2019-03-03T19:20:20.636Z,99351.00
2019-03-03T19:22:51.422Z,99341.00
2019-03-03T19:25:21.947Z,99349.00
2019-03-03T19:27:52.308Z,99348.00
2019-03-03T19:30:27.394Z,99350.00
2019-03-03T19:33:07.482Z,99335.00
2019-03-03T19:35:38.256Z,99334.00
2019-03-03T19:38:08.859Z,99326.00
2019-03-03T19:40:39.791Z,99327.00
2019-03-03T19:43:10.439Z,99314.00
2019-03-03T19:45:41.208Z,99310.00
2019-03-03T19:48:11.774Z,99304.00
2019-03-03T19:50:51.086Z,99313.00
2019-03-03T19:53:21.554Z,99308.00
2019-03-03T19:55:52.212Z,99310.00
2019-03-03T19:58:23.554Z,99296.00
2019-03-03T20:00:53.937Z,99294.00
2019-03-03T20:03:26.177Z,99286.00
2019-03-03T20:06:00.404Z,99287.00
2019-03-03T20:08:35.529Z,99283.00
2019-03-03T20:11:07.662Z,99276.00
2019-03-03T20:13:38.188Z,99286.00
2019-03-03T20:16:12.626Z,99276.00
2019-03-03T20:18:43.962Z,99270.00
2019-03-03T20:21:14.769Z,99261.00
2019-03-03T20:23:46.648Z,99263.00
2019-03-03T20:26:17.274Z,99257.00
2019-03-03T20:28:47.928Z,99254.00
2019-03-03T20:31:18.319Z,99243.00
2019-03-03T20:33:48.794Z,99236.00
2019-03-03T20:36:19.676Z,99236.00
2019-03-03T20:38:50.186Z,99232.00
2019-03-03T20:41:21.864Z,99218.00
2019-03-03T20:43:52.282Z,99210.00
2019-03-03T20:46:22.774Z,99199.00
2019-03-03T20:48:53.334Z,99199.00
2019-03-03T20:51:23.980Z,99199.00
2019-03-03T20:53:56.366Z,99183.00
2019-03-03T20:56:26.786Z,99191.00
2019-03-03T20:58:57.101Z,99178.00
2019-03-03T21:01:27.699Z,99174.00
2019-03-03T21:03:58.266Z,99187.00
2019-03-03T21:06:28.933Z,99186.00
2019-03-03T21:09:01.644Z,99185.00
2019-03-03T21:11:32.112Z,99181.00
2019-03-03T21:14:03.780Z,99163.00
2019-03-03T21:16:34.372Z,99167.00
2019-03-03T21:19:07.283Z,99180.00
2019-03-03T21:21:37.143Z,99186.00
2019-03-03T21:24:07.768Z,99180.00
2019-03-03T21:26:38.396Z,99179.00
2019-03-03T21:29:08.756Z,99171.00
2019-03-03T21:31:39.270Z,99167.00
2019-03-03T21:34:09.708Z,99169.00
2019-03-03T21:36:40.321Z,99160.00
2019-03-03T21:39:11.860Z,99165.00
2019-03-03T21:41:42.302Z,99147.00
2019-03-03T21:44:12.701Z,99152.00
2019-03-03T21:46:43.355Z,99155.00
2019-03-03T21:49:16.642Z,99153.00
2019-03-03T21:51:50.202Z,99138.00
2019-03-03T21:54:22.231Z,99129.00
2019-03-03T21:56:52.864Z,99126.00
2019-03-03T21:59:23.180Z,99120.00
2019-03-03T22:01:53.890Z,99126.00
2019-03-03T22:04:24.458Z,99125.00
2019-03-03T22:06:55.380Z,99112.00
2019-03-03T22:09:27.646Z,99128.00
2019-03-03T22:11:58.013Z,99118.00
2019-03-03T22:14:28.437Z,99121.00
2019-03-03T22:16:58.757Z,99124.00
2019-03-03T22:19:30.919Z,99127.00
2019-03-03T22:22:01.777Z,99123.00
2019-03-03T22:24:32.260Z,99111.00
2019-03-03T22:27:02.604Z,99111.00
2019-03-03T22:29:33.037Z,99099.00
2019-03-03T22:32:03.722Z,99104.00
2019-03-03T22:34:34.429Z,99112.00
2019-03-03T22:37:04.704Z,99095.00
2019-03-03T22:39:35.313Z,99096.00
2019-03-03T22:42:05.769Z,99097.00
2019-03-03T22:44:38.117Z,99098.00
2019-03-03T22:47:08.461Z,99093.00
2019-03-03T22:49:38.918Z,99082.00
2019-03-03T22:52:09.219Z,99071.00
2019-03-03T22:54:39.943Z,99064.00
2019-03-03T22:57:10.672Z,99062.00
2019-03-03T22:59:42.957Z,99054.00
2019-03-03T23:02:14.128Z,99049.00
2019-03-03T23:05:02.819Z,99049.00
2019-03-03T23:08:02.698Z,99052.00
2019-03-03T23:10:49.405Z,99054.00
2019-03-03T23:13:33.605Z,99047.00
2019-03-03T23:16:43.962Z,99037.00
2019-03-03T23:19:50.148Z,99041.00
2019-03-03T23:22:36.032Z,99030.00
2019-03-03T23:25:50.241Z,99043.00
2019-03-03T23:28:21.722Z,99035.00
2019-03-03T23:30:53.495Z,99049.00
2019-03-03T23:33:25.128Z,99027.00
2019-03-03T23:35:56.948Z,99002.00
2019-03-03T23:38:27.434Z,99006.00
2019-03-03T23:40:58.488Z,98998.00
2019-03-03T23:43:28.945Z,98991.00
2019-03-03T23:46:03.922Z,98978.00
2019-03-03T23:48:34.227Z,98974.00
2019-03-03T23:51:09.615Z,98979.00
2019-03-03T23:53:39.856Z,98954.00
2019-03-03T23:56:10.241Z,98948.00
2019-03-03T23:58:40.577Z,98934.00
